sensor_id;sensor_type;location;lat;lon;timestamp;temperature;humidity
15969;DHT22;8085;53.472;9.794;2022-12-07T00:01:24;3.10;99.90
15969;DHT22;8085;53.472;9.794;2022-12-07T00:03:52;3.10;99.90
15969;DHT22;8085;53.472;9.794;2022-12-07T00:06:20;3.10;99.90
15969;DHT22;8085;53.472;9.794;2022-12-07T00:08:48;3.10;99.90
15969;DHT22;8085;53.472;9.794;2022-12-07T00:11:18;3.10;99.90
15969;DHT22;8085;53.472;9.794;2022-12-07T00:13:46;3.20;99.90
15969;DHT22;8085;53.472;9.794;2022-12-07T00:16:15;3.20;99.90
15969;DHT22;8085;53.472;9.794;2022-12-07T00:18:42;3.20;99.90
15969;DHT22;8085;53.472;9.794;2022-12-07T00:21:11;3.20;99.90
15969;DHT22;8085;53.472;9.794;2022-12-07T00:23:39;3.20;99.90
15969;DHT22;8085;53.472;9.794;2022-12-07T00:26:06;3.10;99.90
15969;DHT22;8085;53.472;9.794;2022-12-07T00:28:35;3.10;99.90
15969;DHT22;8085;53.472;9.794;2022-12-07T00:31:03;3.00;99.90
15969;DHT22;8085;53.472;9.794;2022-12-07T00:33:30;3.00;99.90
15969;DHT22;8085;53.472;9.794;2022-12-07T00:35:58;3.00;99.90
15969;DHT22;8085;53.472;9.794;2022-12-07T00:38:27;3.00;99.90
15969;DHT22;8085;53.472;9.794;2022-12-07T00:40:56;3.10;99.90
15969;DHT22;8085;53.472;9.794;2022-12-07T00:43:23;3.10;99.90
15969;DHT22;8085;53.472;9.794;2022-12-07T00:45:52;3.10;99.90
15969;DHT22;8085;53.472;9.794;2022-12-07T00:48:19;3.10;99.90
15969;DHT22;8085;53.472;9.794;2022-12-07T00:50:46;3.10;99.90
15969;DHT22;8085;53.472;9.794;2022-12-07T00:53:13;3.10;99.90
15969;DHT22;8085;53.472;9.794;2022-12-07T00:55:40;3.10;99.90
15969;DHT22;8085;53.472;9.794;2022-12-07T00:58:07;3.10;99.90
15969;DHT22;8085;53.472;9.794;2022-12-07T01:00:35;3.10;99.90
15969;DHT22;8085;53.472;9.794;2022-12-07T01:03:04;3.10;99.90
15969;DHT22;8085;53.472;9.794;2022-12-07T01:05:31;3.10;99.90
15969;DHT22;8085;53.472;9.794;2022-12-07T01:07:58;3.20;99.90
15969;DHT22;8085;53.472;9.794;2022-12-07T01:10:25;3.20;99.90
15969;DHT22;8085;53.472;9.794;2022-12-07T01:12:52;3.20;99.90
15969;DHT22;8085;53.472;9.794;2022-12-07T01:15:18;3.20;99.90
15969;DHT22;8085;53.472;9.794;2022-12-07T01:17:45;3.20;99.90
15969;DHT22;8085;53.472;9.794;2022-12-07T01:20:14;3.30;99.90
15969;DHT22;8085;53.472;9.794;2022-12-07T01:22:42;3.30;99.90
15969;DHT22;8085;53.472;9.794;2022-12-07T01:25:11;3.30;99.90
15969;DHT22;8085;53.472;9.794;2022-12-07T01:27:38;3.30;99.90
15969;DHT22;8085;53.472;9.794;2022-12-07T01:30:06;3.30;99.90
15969;DHT22;8085;53.472;9.794;2022-12-07T01:32:33;3.30;99.90
15969;DHT22;8085;53.472;9.794;2022-12-07T01:35:00;3.30;99.90
15969;DHT22;8085;53.472;9.794;2022-12-07T01:37:34;3.20;99.90
15969;DHT22;8085;53.472;9.794;2022-12-07T01:40:01;3.20;99.90
15969;DHT22;8085;53.472;9.794;2022-12-07T01:42:28;3.20;99.90
15969;DHT22;8085;53.472;9.794;2022-12-07T01:48:13;3.20;99.90
15969;DHT22;8085;53.472;9.794;2022-12-07T01:50:43;3.20;99.90
15969;DHT22;8085;53.472;9.794;2022-12-07T01:53:13;3.20;99.90
15969;DHT22;8085;53.472;9.794;2022-12-07T01:55:42;3.10;99.90
15969;DHT22;8085;53.472;9.794;2022-12-07T01:58:11;3.00;99.90
15969;DHT22;8085;53.472;9.794;2022-12-07T02:00:38;3.00;99.90
15969;DHT22;8085;53.472;9.794;2022-12-07T02:03:09;3.00;99.90
15969;DHT22;8085;53.472;9.794;2022-12-07T02:05:38;2.90;99.90
15969;DHT22;8085;53.472;9.794;2022-12-07T02:08:07;2.90;99.90
15969;DHT22;8085;53.472;9.794;2022-12-07T02:10:36;2.80;99.90
15969;DHT22;8085;53.472;9.794;2022-12-07T02:13:05;2.80;99.90
15969;DHT22;8085;53.472;9.794;2022-12-07T02:15:41;2.80;99.90
15969;DHT22;8085;53.472;9.794;2022-12-07T02:18:16;2.80;99.90
15969;DHT22;8085;53.472;9.794;2022-12-07T02:20:51;2.80;99.90
15969;DHT22;8085;53.472;9.794;2022-12-07T02:24:09;2.80;99.90
15969;DHT22;8085;53.472;9.794;2022-12-07T02:29:50;2.80;99.90
15969;DHT22;8085;53.472;9.794;2022-12-07T02:32:24;2.80;99.90
15969;DHT22;8085;53.472;9.794;2022-12-07T02:34:54;2.80;99.90
15969;DHT22;8085;53.472;9.794;2022-12-07T02:37:32;2.90;99.90
15969;DHT22;8085;53.472;9.794;2022-12-07T02:40:02;2.90;99.90
15969;DHT22;8085;53.472;9.794;2022-12-07T02:42:33;2.90;99.90
15969;DHT22;8085;53.472;9.794;2022-12-07T02:45:05;2.90;99.90
15969;DHT22;8085;53.472;9.794;2022-12-07T02:47:34;2.90;99.90
15969;DHT22;8085;53.472;9.794;2022-12-07T02:50:03;2.90;99.90
15969;DHT22;8085;53.472;9.794;2022-12-07T02:52:30;2.90;99.90
15969;DHT22;8085;53.472;9.794;2022-12-07T02:54:57;2.90;99.90
15969;DHT22;8085;53.472;9.794;2022-12-07T02:57:42;2.90;99.90
15969;DHT22;8085;53.472;9.794;2022-12-07T03:00:14;2.90;99.90
15969;DHT22;8085;53.472;9.794;2022-12-07T03:02:51;2.90;99.90
15969;DHT22;8085;53.472;9.794;2022-12-07T03:05:41;2.80;99.90
15969;DHT22;8085;53.472;9.794;2022-12-07T03:08:15;2.80;99.90
15969;DHT22;8085;53.472;9.794;2022-12-07T03:10:51;2.80;99.90
15969;DHT22;8085;53.472;9.794;2022-12-07T03:13:25;2.80;99.90
15969;DHT22;8085;53.472;9.794;2022-12-07T03:16:00;2.80;99.90
15969;DHT22;8085;53.472;9.794;2022-12-07T03:18:30;2.80;99.90
15969;DHT22;8085;53.472;9.794;2022-12-07T03:21:01;2.80;99.90
15969;DHT22;8085;53.472;9.794;2022-12-07T03:23:32;2.80;99.90
15969;DHT22;8085;53.472;9.794;2022-12-07T03:26:01;2.80;99.90
15969;DHT22;8085;53.472;9.794;2022-12-07T03:28:34;2.70;99.90
15969;DHT22;8085;53.472;9.794;2022-12-07T03:31:06;2.70;99.90
15969;DHT22;8085;53.472;9.794;2022-12-07T03:33:40;2.60;99.90
15969;DHT22;8085;53.472;9.794;2022-12-07T03:36:11;2.60;99.90
15969;DHT22;8085;53.472;9.794;2022-12-07T03:38:45;2.50;99.90
15969;DHT22;8085;53.472;9.794;2022-12-07T03:41:18;2.50;99.90
15969;DHT22;8085;53.472;9.794;2022-12-07T03:43:46;2.50;99.90
15969;DHT22;8085;53.472;9.794;2022-12-07T03:46:19;2.50;99.90
15969;DHT22;8085;53.472;9.794;2022-12-07T03:48:54;2.40;99.90
15969;DHT22;8085;53.472;9.794;2022-12-07T03:51:26;2.30;99.90
15969;DHT22;8085;53.472;9.794;2022-12-07T03:53:59;2.30;99.90
15969;DHT22;8085;53.472;9.794;2022-12-07T03:56:28;2.30;99.90
15969;DHT22;8085;53.472;9.794;2022-12-07T03:58:55;2.30;99.90
15969;DHT22;8085;53.472;9.794;2022-12-07T04:01:24;2.20;99.90
15969;DHT22;8085;53.472;9.794;2022-12-07T04:03:51;2.20;99.90
15969;DHT22;8085;53.472;9.794;2022-12-07T04:06:18;2.20;99.90
15969;DHT22;8085;53.472;9.794;2022-12-07T04:08:45;2.20;99.90
15969;DHT22;8085;53.472;9.794;2022-12-07T04:11:11;2.20;99.90
15969;DHT22;8085;53.472;9.794;2022-12-07T04:13:38;2.10;99.90
15969;DHT22;8085;53.472;9.794;2022-12-07T04:16:19;2.10;99.90
15969;DHT22;8085;53.472;9.794;2022-12-07T04:18:47;2.10;99.90
15969;DHT22;8085;53.472;9.794;2022-12-07T04:21:14;2.00;99.90
15969;DHT22;8085;53.472;9.794;2022-12-07T04:23:41;2.10;99.90
15969;DHT22;8085;53.472;9.794;2022-12-07T04:26:07;2.10;99.90
15969;DHT22;8085;53.472;9.794;2022-12-07T04:28:34;2.00;99.90
15969;DHT22;8085;53.472;9.794;2022-12-07T04:31:01;2.00;99.90
15969;DHT22;8085;53.472;9.794;2022-12-07T04:33:28;2.00;99.90
15969;DHT22;8085;53.472;9.794;2022-12-07T04:35:56;2.00;99.90
15969;DHT22;8085;53.472;9.794;2022-12-07T04:38:23;2.00;99.90
15969;DHT22;8085;53.472;9.794;2022-12-07T04:40:50;2.00;99.90
15969;DHT22;8085;53.472;9.794;2022-12-07T04:43:16;2.00;99.90
15969;DHT22;8085;53.472;9.794;2022-12-07T04:45:46;2.00;99.90
15969;DHT22;8085;53.472;9.794;2022-12-07T04:48:13;2.00;99.90
15969;DHT22;8085;53.472;9.794;2022-12-07T04:50:40;2.10;99.90
15969;DHT22;8085;53.472;9.794;2022-12-07T04:53:08;2.10;99.90
15969;DHT22;8085;53.472;9.794;2022-12-07T04:55:36;2.20;99.90
15969;DHT22;8085;53.472;9.794;2022-12-07T04:58:03;2.20;99.90
15969;DHT22;8085;53.472;9.794;2022-12-07T05:00:29;2.20;99.90
15969;DHT22;8085;53.472;9.794;2022-12-07T05:02:56;2.20;99.90
15969;DHT22;8085;53.472;9.794;2022-12-07T05:05:23;2.20;99.90
15969;DHT22;8085;53.472;9.794;2022-12-07T05:07:50;2.20;99.90
15969;DHT22;8085;53.472;9.794;2022-12-07T05:10:18;2.30;99.90
15969;DHT22;8085;53.472;9.794;2022-12-07T05:12:45;2.30;99.90
15969;DHT22;8085;53.472;9.794;2022-12-07T05:15:13;2.30;99.90
15969;DHT22;8085;53.472;9.794;2022-12-07T05:17:40;2.20;99.90
15969;DHT22;8085;53.472;9.794;2022-12-07T05:20:08;2.20;99.90
15969;DHT22;8085;53.472;9.794;2022-12-07T05:22:35;2.20;99.90
15969;DHT22;8085;53.472;9.794;2022-12-07T05:25:02;2.10;99.90
15969;DHT22;8085;53.472;9.794;2022-12-07T05:27:30;2.10;99.90
15969;DHT22;8085;53.472;9.794;2022-12-07T05:29:57;2.10;99.90
15969;DHT22;8085;53.472;9.794;2022-12-07T05:32:23;2.10;99.90
15969;DHT22;8085;53.472;9.794;2022-12-07T05:34:50;2.10;99.90
15969;DHT22;8085;53.472;9.794;2022-12-07T05:37:20;2.00;99.90
15969;DHT22;8085;53.472;9.794;2022-12-07T05:39:46;2.00;99.90
15969;DHT22;8085;53.472;9.794;2022-12-07T05:42:13;2.00;99.90
15969;DHT22;8085;53.472;9.794;2022-12-07T05:44:43;1.90;99.90
15969;DHT22;8085;53.472;9.794;2022-12-07T05:47:10;1.80;99.90
15969;DHT22;8085;53.472;9.794;2022-12-07T05:49:37;1.80;99.90
15969;DHT22;8085;53.472;9.794;2022-12-07T05:52:05;1.80;99.90
15969;DHT22;8085;53.472;9.794;2022-12-07T05:54:32;1.80;99.90
15969;DHT22;8085;53.472;9.794;2022-12-07T05:56:59;1.80;99.90
15969;DHT22;8085;53.472;9.794;2022-12-07T05:59:26;1.80;99.90
15969;DHT22;8085;53.472;9.794;2022-12-07T06:01:56;1.70;99.90
15969;DHT22;8085;53.472;9.794;2022-12-07T06:04:24;1.80;99.90
15969;DHT22;8085;53.472;9.794;2022-12-07T06:06:52;1.70;99.90
15969;DHT22;8085;53.472;9.794;2022-12-07T06:09:20;1.70;99.90
15969;DHT22;8085;53.472;9.794;2022-12-07T06:11:47;1.70;99.90
15969;DHT22;8085;53.472;9.794;2022-12-07T06:14:32;1.70;99.90
15969;DHT22;8085;53.472;9.794;2022-12-07T06:17:00;1.70;99.90
15969;DHT22;8085;53.472;9.794;2022-12-07T06:19:27;1.60;99.90
15969;DHT22;8085;53.472;9.794;2022-12-07T06:21:54;1.60;99.90
15969;DHT22;8085;53.472;9.794;2022-12-07T06:24:21;1.60;99.90
15969;DHT22;8085;53.472;9.794;2022-12-07T06:26:49;1.60;99.90
15969;DHT22;8085;53.472;9.794;2022-12-07T06:29:16;1.60;99.90
15969;DHT22;8085;53.472;9.794;2022-12-07T06:31:43;1.60;99.90
15969;DHT22;8085;53.472;9.794;2022-12-07T06:34:13;1.60;99.90
15969;DHT22;8085;53.472;9.794;2022-12-07T06:36:40;1.60;99.90
15969;DHT22;8085;53.472;9.794;2022-12-07T06:39:08;1.60;99.90
15969;DHT22;8085;53.472;9.794;2022-12-07T06:41:35;1.60;99.90
15969;DHT22;8085;53.472;9.794;2022-12-07T06:44:02;1.60;99.90
15969;DHT22;8085;53.472;9.794;2022-12-07T06:46:29;1.60;99.90
15969;DHT22;8085;53.472;9.794;2022-12-07T06:48:56;1.60;99.90
15969;DHT22;8085;53.472;9.794;2022-12-07T06:51:24;1.60;99.90
15969;DHT22;8085;53.472;9.794;2022-12-07T06:53:51;1.60;99.90
15969;DHT22;8085;53.472;9.794;2022-12-07T06:56:18;1.60;99.90
15969;DHT22;8085;53.472;9.794;2022-12-07T06:58:44;1.60;99.90
15969;DHT22;8085;53.472;9.794;2022-12-07T07:01:12;1.60;99.90
15969;DHT22;8085;53.472;9.794;2022-12-07T07:03:40;1.60;99.90
15969;DHT22;8085;53.472;9.794;2022-12-07T07:06:07;1.70;99.90
15969;DHT22;8085;53.472;9.794;2022-12-07T07:08:36;1.70;99.90
15969;DHT22;8085;53.472;9.794;2022-12-07T07:11:04;1.70;99.90
15969;DHT22;8085;53.472;9.794;2022-12-07T07:13:31;1.70;99.90
15969;DHT22;8085;53.472;9.794;2022-12-07T07:15:58;1.70;99.90
15969;DHT22;8085;53.472;9.794;2022-12-07T07:18:25;1.70;99.90
15969;DHT22;8085;53.472;9.794;2022-12-07T07:20:52;1.70;99.90
15969;DHT22;8085;53.472;9.794;2022-12-07T07:23:20;1.70;99.90
15969;DHT22;8085;53.472;9.794;2022-12-07T07:25:48;1.80;99.90
15969;DHT22;8085;53.472;9.794;2022-12-07T07:28:15;1.80;99.90
15969;DHT22;8085;53.472;9.794;2022-12-07T07:30:42;1.80;99.90
15969;DHT22;8085;53.472;9.794;2022-12-07T07:33:10;1.80;99.90
15969;DHT22;8085;53.472;9.794;2022-12-07T07:35:37;1.80;99.90
15969;DHT22;8085;53.472;9.794;2022-12-07T07:38:04;1.90;99.90
15969;DHT22;8085;53.472;9.794;2022-12-07T07:40:31;1.90;99.90
15969;DHT22;8085;53.472;9.794;2022-12-07T07:43:00;1.90;99.90
15969;DHT22;8085;53.472;9.794;2022-12-07T07:45:27;1.90;99.90
15969;DHT22;8085;53.472;9.794;2022-12-07T07:47:54;1.90;99.90
15969;DHT22;8085;53.472;9.794;2022-12-07T07:50:21;1.90;99.90
15969;DHT22;8085;53.472;9.794;2022-12-07T07:52:48;1.90;99.90
15969;DHT22;8085;53.472;9.794;2022-12-07T07:55:15;1.90;99.90
15969;DHT22;8085;53.472;9.794;2022-12-07T07:57:42;2.00;99.90
15969;DHT22;8085;53.472;9.794;2022-12-07T08:00:13;2.00;99.90
15969;DHT22;8085;53.472;9.794;2022-12-07T08:02:41;2.10;99.90
15969;DHT22;8085;53.472;9.794;2022-12-07T08:05:09;2.10;99.90
15969;DHT22;8085;53.472;9.794;2022-12-07T08:07:36;2.10;99.90
15969;DHT22;8085;53.472;9.794;2022-12-07T08:10:04;2.10;99.90
15969;DHT22;8085;53.472;9.794;2022-12-07T08:12:31;2.10;99.90
15969;DHT22;8085;53.472;9.794;2022-12-07T08:15:01;2.10;99.90
15969;DHT22;8085;53.472;9.794;2022-12-07T08:17:29;2.20;99.90
15969;DHT22;8085;53.472;9.794;2022-12-07T08:19:56;2.20;99.90
15969;DHT22;8085;53.472;9.794;2022-12-07T08:22:23;2.20;99.90
15969;DHT22;8085;53.472;9.794;2022-12-07T08:24:50;2.20;99.90
15969;DHT22;8085;53.472;9.794;2022-12-07T08:27:17;2.20;99.90
15969;DHT22;8085;53.472;9.794;2022-12-07T08:29:43;2.30;99.90
15969;DHT22;8085;53.472;9.794;2022-12-07T08:32:11;2.30;99.90
15969;DHT22;8085;53.472;9.794;2022-12-07T08:34:39;2.40;99.90
15969;DHT22;8085;53.472;9.794;2022-12-07T08:37:06;2.40;99.90
15969;DHT22;8085;53.472;9.794;2022-12-07T08:39:32;2.40;99.90
15969;DHT22;8085;53.472;9.794;2022-12-07T08:41:59;2.50;99.90
15969;DHT22;8085;53.472;9.794;2022-12-07T08:44:26;2.50;99.90
15969;DHT22;8085;53.472;9.794;2022-12-07T08:46:56;2.50;99.90
15969;DHT22;8085;53.472;9.794;2022-12-07T08:49:26;2.60;99.90
15969;DHT22;8085;53.472;9.794;2022-12-07T08:51:55;2.60;99.90
15969;DHT22;8085;53.472;9.794;2022-12-07T08:54:23;2.70;99.90
15969;DHT22;8085;53.472;9.794;2022-12-07T08:56:50;2.70;99.90
15969;DHT22;8085;53.472;9.794;2022-12-07T08:59:18;2.70;99.90
15969;DHT22;8085;53.472;9.794;2022-12-07T09:01:45;2.80;99.90
15969;DHT22;8085;53.472;9.794;2022-12-07T09:04:12;2.80;99.90
15969;DHT22;8085;53.472;9.794;2022-12-07T09:06:40;2.80;99.90
15969;DHT22;8085;53.472;9.794;2022-12-07T09:09:09;2.80;99.90
15969;DHT22;8085;53.472;9.794;2022-12-07T09:11:37;2.80;99.90
15969;DHT22;8085;53.472;9.794;2022-12-07T09:14:04;2.80;99.90
15969;DHT22;8085;53.472;9.794;2022-12-07T09:16:31;2.90;99.90
15969;DHT22;8085;53.472;9.794;2022-12-07T09:18:58;2.90;99.90
15969;DHT22;8085;53.472;9.794;2022-12-07T09:21:25;3.00;99.90
15969;DHT22;8085;53.472;9.794;2022-12-07T09:23:52;3.00;99.90
15969;DHT22;8085;53.472;9.794;2022-12-07T09:26:20;3.10;99.90
15969;DHT22;8085;53.472;9.794;2022-12-07T09:28:47;3.10;99.90
15969;DHT22;8085;53.472;9.794;2022-12-07T09:31:13;3.10;99.90
15969;DHT22;8085;53.472;9.794;2022-12-07T09:33:40;3.20;99.90
15969;DHT22;8085;53.472;9.794;2022-12-07T09:36:07;3.10;99.90
15969;DHT22;8085;53.472;9.794;2022-12-07T09:38:35;3.10;99.90
15969;DHT22;8085;53.472;9.794;2022-12-07T09:41:05;3.10;99.90
15969;DHT22;8085;53.472;9.794;2022-12-07T09:43:35;3.10;99.90
15969;DHT22;8085;53.472;9.794;2022-12-07T09:46:03;3.20;99.90
15969;DHT22;8085;53.472;9.794;2022-12-07T09:48:32;3.10;99.90
15969;DHT22;8085;53.472;9.794;2022-12-07T09:51:02;3.10;99.90
15969;DHT22;8085;53.472;9.794;2022-12-07T09:53:33;3.10;99.90
15969;DHT22;8085;53.472;9.794;2022-12-07T09:56:01;3.00;99.90
15969;DHT22;8085;53.472;9.794;2022-12-07T09:58:30;3.00;99.90
15969;DHT22;8085;53.472;9.794;2022-12-07T10:01:05;3.00;99.90
15969;DHT22;8085;53.472;9.794;2022-12-07T10:03:36;3.00;99.90
15969;DHT22;8085;53.472;9.794;2022-12-07T10:06:04;3.00;99.90
15969;DHT22;8085;53.472;9.794;2022-12-07T10:08:32;3.10;99.90
15969;DHT22;8085;53.472;9.794;2022-12-07T10:11:01;3.10;99.90
15969;DHT22;8085;53.472;9.794;2022-12-07T10:13:35;3.10;99.90
15969;DHT22;8085;53.472;9.794;2022-12-07T10:16:05;3.10;99.90
15969;DHT22;8085;53.472;9.794;2022-12-07T10:18:33;3.10;99.90
15969;DHT22;8085;53.472;9.794;2022-12-07T10:21:13;3.20;99.90
15969;DHT22;8085;53.472;9.794;2022-12-07T10:23:42;3.20;99.90
15969;DHT22;8085;53.472;9.794;2022-12-07T10:26:28;3.20;99.90
15969;DHT22;8085;53.472;9.794;2022-12-07T10:28:56;3.20;99.90
15969;DHT22;8085;53.472;9.794;2022-12-07T10:31:26;3.20;99.90
15969;DHT22;8085;53.472;9.794;2022-12-07T10:33:54;3.20;99.90
15969;DHT22;8085;53.472;9.794;2022-12-07T10:36:25;3.20;99.90
15969;DHT22;8085;53.472;9.794;2022-12-07T10:38:57;3.20;99.90
15969;DHT22;8085;53.472;9.794;2022-12-07T10:41:25;3.20;99.90
15969;DHT22;8085;53.472;9.794;2022-12-07T10:43:55;3.20;99.90
15969;DHT22;8085;53.472;9.794;2022-12-07T10:46:46;3.20;99.90
15969;DHT22;8085;53.472;9.794;2022-12-07T10:52:30;3.30;99.90
15969;DHT22;8085;53.472;9.794;2022-12-07T10:55:11;3.30;99.90
15969;DHT22;8085;53.472;9.794;2022-12-07T10:57:49;3.40;99.90
15969;DHT22;8085;53.472;9.794;2022-12-07T11:00:23;3.40;99.90
15969;DHT22;8085;53.472;9.794;2022-12-07T11:05:52;3.40;99.90
15969;DHT22;8085;53.472;9.794;2022-12-07T11:08:33;3.50;99.90
15969;DHT22;8085;53.472;9.794;2022-12-07T11:11:07;3.50;99.90
15969;DHT22;8085;53.472;9.794;2022-12-07T11:13:42;3.50;99.90
15969;DHT22;8085;53.472;9.794;2022-12-07T11:16:21;3.50;99.90
15969;DHT22;8085;53.472;9.794;2022-12-07T11:19:04;3.60;99.90
15969;DHT22;8085;53.472;9.794;2022-12-07T11:21:39;3.60;99.90
15969;DHT22;8085;53.472;9.794;2022-12-07T11:24:12;3.60;99.90
15969;DHT22;8085;53.472;9.794;2022-12-07T11:26:49;3.70;99.90
15969;DHT22;8085;53.472;9.794;2022-12-07T11:29:51;3.70;99.90
15969;DHT22;8085;53.472;9.794;2022-12-07T11:32:26;3.70;99.90
15969;DHT22;8085;53.472;9.794;2022-12-07T11:35:07;3.70;99.90
15969;DHT22;8085;53.472;9.794;2022-12-07T11:37:37;3.80;99.90
15969;DHT22;8085;53.472;9.794;2022-12-07T11:40:16;3.90;99.90
15969;DHT22;8085;53.472;9.794;2022-12-07T11:42:50;4.00;99.90
15969;DHT22;8085;53.472;9.794;2022-12-07T11:45:23;4.00;99.90
15969;DHT22;8085;53.472;9.794;2022-12-07T11:47:55;4.00;99.90
15969;DHT22;8085;53.472;9.794;2022-12-07T11:50:31;4.10;99.90
15969;DHT22;8085;53.472;9.794;2022-12-07T11:53:01;4.00;99.90
15969;DHT22;8085;53.472;9.794;2022-12-07T11:55:39;4.00;99.90
15969;DHT22;8085;53.472;9.794;2022-12-07T11:58:18;4.00;99.90
15969;DHT22;8085;53.472;9.794;2022-12-07T12:00:48;3.90;99.90
15969;DHT22;8085;53.472;9.794;2022-12-07T12:03:20;3.90;99.90
15969;DHT22;8085;53.472;9.794;2022-12-07T12:05:51;3.80;99.90
15969;DHT22;8085;53.472;9.794;2022-12-07T12:08:21;3.90;99.90
15969;DHT22;8085;53.472;9.794;2022-12-07T12:10:55;3.80;99.90
15969;DHT22;8085;53.472;9.794;2022-12-07T12:13:48;3.90;99.90
15969;DHT22;8085;53.472;9.794;2022-12-07T12:16:44;3.90;99.90
15969;DHT22;8085;53.472;9.794;2022-12-07T12:19:23;3.90;99.90
15969;DHT22;8085;53.472;9.794;2022-12-07T12:22:06;3.90;99.90
15969;DHT22;8085;53.472;9.794;2022-12-07T12:24:34;3.90;99.90
15969;DHT22;8085;53.472;9.794;2022-12-07T12:27:05;3.90;99.90
15969;DHT22;8085;53.472;9.794;2022-12-07T12:29:35;3.90;99.90
15969;DHT22;8085;53.472;9.794;2022-12-07T12:32:12;4.00;99.90
15969;DHT22;8085;53.472;9.794;2022-12-07T12:34:41;4.00;99.90
15969;DHT22;8085;53.472;9.794;2022-12-07T12:37:43;4.00;99.90
15969;DHT22;8085;53.472;9.794;2022-12-07T12:40:39;4.00;99.90
15969;DHT22;8085;53.472;9.794;2022-12-07T12:46:38;4.10;99.90
15969;DHT22;8085;53.472;9.794;2022-12-07T12:50:10;4.00;99.90
15969;DHT22;8085;53.472;9.794;2022-12-07T12:56:20;4.20;99.90
15969;DHT22;8085;53.472;9.794;2022-12-07T12:59:26;4.30;99.90
15969;DHT22;8085;53.472;9.794;2022-12-07T13:02:03;4.30;99.90
15969;DHT22;8085;53.472;9.794;2022-12-07T13:04:58;4.40;99.90
15969;DHT22;8085;53.472;9.794;2022-12-07T13:07:58;4.30;99.90
15969;DHT22;8085;53.472;9.794;2022-12-07T13:10:33;4.30;99.90
15969;DHT22;8085;53.472;9.794;2022-12-07T13:13:05;4.30;99.90
15969;DHT22;8085;53.472;9.794;2022-12-07T13:15:52;4.20;99.90
15969;DHT22;8085;53.472;9.794;2022-12-07T13:18:24;4.20;99.90
15969;DHT22;8085;53.472;9.794;2022-12-07T13:20:53;4.30;99.90
15969;DHT22;8085;53.472;9.794;2022-12-07T13:23:24;4.20;99.90
15969;DHT22;8085;53.472;9.794;2022-12-07T13:25:55;4.20;99.90
15969;DHT22;8085;53.472;9.794;2022-12-07T13:28:26;4.20;99.90
15969;DHT22;8085;53.472;9.794;2022-12-07T13:31:11;4.10;99.90
15969;DHT22;8085;53.472;9.794;2022-12-07T13:33:39;4.10;99.90
15969;DHT22;8085;53.472;9.794;2022-12-07T13:36:16;4.00;99.90
15969;DHT22;8085;53.472;9.794;2022-12-07T13:38:50;3.90;99.90
15969;DHT22;8085;53.472;9.794;2022-12-07T13:41:19;3.90;99.90
15969;DHT22;8085;53.472;9.794;2022-12-07T13:43:51;3.90;99.90
15969;DHT22;8085;53.472;9.794;2022-12-07T13:46:24;3.80;99.90
15969;DHT22;8085;53.472;9.794;2022-12-07T13:48:52;3.80;99.90
15969;DHT22;8085;53.472;9.794;2022-12-07T13:51:22;3.80;99.90
15969;DHT22;8085;53.472;9.794;2022-12-07T13:53:51;3.80;99.90
15969;DHT22;8085;53.472;9.794;2022-12-07T13:56:18;3.70;99.90
15969;DHT22;8085;53.472;9.794;2022-12-07T13:58:48;3.70;99.90
15969;DHT22;8085;53.472;9.794;2022-12-07T14:01:15;3.70;99.90
15969;DHT22;8085;53.472;9.794;2022-12-07T14:03:43;3.70;99.90
15969;DHT22;8085;53.472;9.794;2022-12-07T14:06:22;3.80;99.90
15969;DHT22;8085;53.472;9.794;2022-12-07T14:09:05;3.80;99.90
15969;DHT22;8085;53.472;9.794;2022-12-07T14:11:33;3.80;99.90
15969;DHT22;8085;53.472;9.794;2022-12-07T14:14:02;3.80;99.90
15969;DHT22;8085;53.472;9.794;2022-12-07T14:16:31;3.80;99.90
15969;DHT22;8085;53.472;9.794;2022-12-07T14:19:00;3.80;99.90
15969;DHT22;8085;53.472;9.794;2022-12-07T14:21:28;3.80;99.90
15969;DHT22;8085;53.472;9.794;2022-12-07T14:24:12;3.70;99.90
15969;DHT22;8085;53.472;9.794;2022-12-07T14:26:44;3.70;99.90
15969;DHT22;8085;53.472;9.794;2022-12-07T14:29:30;3.70;99.90
15969;DHT22;8085;53.472;9.794;2022-12-07T14:32:01;3.70;99.90
15969;DHT22;8085;53.472;9.794;2022-12-07T14:34:40;3.70;99.90
15969;DHT22;8085;53.472;9.794;2022-12-07T14:37:08;3.70;99.90
15969;DHT22;8085;53.472;9.794;2022-12-07T14:39:36;3.70;99.90
15969;DHT22;8085;53.472;9.794;2022-12-07T14:42:03;3.60;99.90
15969;DHT22;8085;53.472;9.794;2022-12-07T14:44:31;3.60;99.90
15969;DHT22;8085;53.472;9.794;2022-12-07T14:46:58;3.50;99.90
15969;DHT22;8085;53.472;9.794;2022-12-07T14:49:25;3.50;99.90
15969;DHT22;8085;53.472;9.794;2022-12-07T14:51:52;3.50;99.90
15969;DHT22;8085;53.472;9.794;2022-12-07T14:54:20;3.40;99.90
15969;DHT22;8085;53.472;9.794;2022-12-07T14:56:50;3.40;99.90
15969;DHT22;8085;53.472;9.794;2022-12-07T14:59:17;3.30;99.90
15969;DHT22;8085;53.472;9.794;2022-12-07T15:01:45;3.30;99.90
15969;DHT22;8085;53.472;9.794;2022-12-07T15:04:12;3.20;99.90
15969;DHT22;8085;53.472;9.794;2022-12-07T15:06:39;3.10;99.90
15969;DHT22;8085;53.472;9.794;2022-12-07T15:09:10;3.10;99.90
15969;DHT22;8085;53.472;9.794;2022-12-07T15:11:37;3.10;99.90
15969;DHT22;8085;53.472;9.794;2022-12-07T15:14:03;3.00;99.90
15969;DHT22;8085;53.472;9.794;2022-12-07T15:16:39;3.00;99.90
15969;DHT22;8085;53.472;9.794;2022-12-07T15:19:12;3.00;99.90
15969;DHT22;8085;53.472;9.794;2022-12-07T15:21:39;2.90;99.90
15969;DHT22;8085;53.472;9.794;2022-12-07T15:24:07;3.00;99.90
15969;DHT22;8085;53.472;9.794;2022-12-07T15:26:34;2.90;99.90
15969;DHT22;8085;53.472;9.794;2022-12-07T15:29:01;2.90;99.90
15969;DHT22;8085;53.472;9.794;2022-12-07T15:31:28;3.00;99.90
15969;DHT22;8085;53.472;9.794;2022-12-07T15:33:55;3.00;99.90
15969;DHT22;8085;53.472;9.794;2022-12-07T15:36:24;3.00;99.90
15969;DHT22;8085;53.472;9.794;2022-12-07T15:38:51;3.00;99.90
15969;DHT22;8085;53.472;9.794;2022-12-07T15:41:18;3.00;99.90
15969;DHT22;8085;53.472;9.794;2022-12-07T15:43:45;2.90;99.90
15969;DHT22;8085;53.472;9.794;2022-12-07T15:46:30;2.90;99.90
15969;DHT22;8085;53.472;9.794;2022-12-07T15:48:57;2.80;99.90
15969;DHT22;8085;53.472;9.794;2022-12-07T15:51:25;2.80;99.90
15969;DHT22;8085;53.472;9.794;2022-12-07T15:53:52;2.80;99.90
15969;DHT22;8085;53.472;9.794;2022-12-07T15:56:19;2.80;99.90
15969;DHT22;8085;53.472;9.794;2022-12-07T15:58:46;2.70;99.90
15969;DHT22;8085;53.472;9.794;2022-12-07T16:01:15;2.70;99.90
15969;DHT22;8085;53.472;9.794;2022-12-07T16:03:42;2.70;99.90
15969;DHT22;8085;53.472;9.794;2022-12-07T16:06:09;2.60;99.90
15969;DHT22;8085;53.472;9.794;2022-12-07T16:08:41;2.60;99.90
15969;DHT22;8085;53.472;9.794;2022-12-07T16:11:08;2.50;99.90
15969;DHT22;8085;53.472;9.794;2022-12-07T16:13:35;2.50;99.90
15969;DHT22;8085;53.472;9.794;2022-12-07T16:16:03;2.40;99.90
15969;DHT22;8085;53.472;9.794;2022-12-07T16:18:30;2.20;99.90
15969;DHT22;8085;53.472;9.794;2022-12-07T16:20:57;2.20;99.90
15969;DHT22;8085;53.472;9.794;2022-12-07T16:23:24;2.10;99.90
15969;DHT22;8085;53.472;9.794;2022-12-07T16:25:52;2.00;99.90
15969;DHT22;8085;53.472;9.794;2022-12-07T16:28:20;2.00;99.90
15969;DHT22;8085;53.472;9.794;2022-12-07T16:30:46;2.00;99.90
15969;DHT22;8085;53.472;9.794;2022-12-07T16:33:13;2.00;99.90
15969;DHT22;8085;53.472;9.794;2022-12-07T16:35:40;2.00;99.90
15969;DHT22;8085;53.472;9.794;2022-12-07T16:38:07;2.00;99.90
15969;DHT22;8085;53.472;9.794;2022-12-07T16:40:34;2.00;99.90
15969;DHT22;8085;53.472;9.794;2022-12-07T16:43:02;2.00;99.90